Time;durP1;ratioP1;P1;durP2;ratioP2;P2;SDS_P1;SDS_P2;PMS_P1;PMS_P2;Temp;Humidity;BMP_temperature;BMP_pressure;BME280_temperature;BME280_humidity;BME280_pressure;Samples;Min_cycle;Max_cycle;Signal;HPM_P1;HPM_P2
2023/07/19 00:01:34;;;;;;;1.73;0.77;;;17.00;99.90;;;;;;5154310;27;20018;-55
2023/07/19 00:03:59;;;;;;;3.60;0.85;;;17.00;99.90;;;;;;5154177;27;20019;-53
2023/07/19 00:06:25;;;;;;;1.13;0.52;;;17.00;99.90;;;;;;5154176;27;20035;-57
2023/07/19 00:08:51;;;;;;;1.20;0.60;;;17.00;99.90;;;;;;5154008;27;20117;-56
2023/07/19 00:11:17;;;;;;;1.63;0.70;;;16.90;99.90;;;;;;5138102;27;20206;-52
2023/07/19 00:13:42;;;;;;;2.38;0.75;;;16.90;99.90;;;;;;5154421;27;20110;-53
2023/07/19 00:16:08;;;;;;;1.58;0.70;;;16.90;99.90;;;;;;5154133;27;20459;-49
2023/07/19 00:18:34;;;;;;;1.92;0.68;;;16.90;99.90;;;;;;5154052;27;20023;-51
2023/07/19 00:20:59;;;;;;;3.75;0.90;;;17.00;99.90;;;;;;5152535;27;20059;-45
2023/07/19 00:23:25;;;;;;;3.85;0.60;;;17.00;99.90;;;;;;5125018;27;20026;-57
2023/07/19 00:25:51;;;;;;;0.90;0.50;;;17.00;99.90;;;;;;5153777;27;20037;-47
2023/07/19 00:28:17;;;;;;;2.83;0.90;;;17.10;99.90;;;;;;5153612;27;20010;-53
2023/07/19 00:30:42;;;;;;;2.65;0.63;;;17.10;99.90;;;;;;5153826;27;20403;-45
2023/07/19 00:33:08;;;;;;;1.02;0.60;;;17.10;99.90;;;;;;5153492;27;20395;-47
2023/07/19 00:35:38;;;;;;;1.95;0.80;;;17.10;99.90;;;;;;5153789;27;20018;-50
2023/07/19 00:38:04;;;;;;;1.52;0.68;;;17.10;99.90;;;;;;5153447;27;20026;-50
2023/07/19 00:40:32;;;;;;;1.95;0.80;;;17.10;99.90;;;;;;5153360;27;20031;-49
2023/07/19 00:42:58;;;;;;;2.67;0.90;;;17.20;99.90;;;;;;5153560;27;20041;-45
2023/07/19 00:45:25;;;;;;;4.88;1.00;;;17.10;99.90;;;;;;5147322;27;20034;-45
2023/07/19 00:47:52;;;;;;;1.77;0.63;;;17.10;99.90;;;;;;5144235;27;20011;-45
2023/07/19 00:50:18;;;;;;;0.80;0.60;;;17.10;99.90;;;;;;5146995;27;20707;-44
2023/07/19 00:52:43;;;;;;;2.70;0.77;;;17.10;99.90;;;;;;5143624;27;20023;-44
2023/07/19 00:55:09;;;;;;;2.97;1.00;;;17.10;99.90;;;;;;5135646;27;20023;-44
2023/07/19 00:57:35;;;;;;;2.80;0.75;;;17.10;99.90;;;;;;5135423;27;20050;-44
2023/07/19 01:00:01;;;;;;;3.78;0.85;;;17.10;99.90;;;;;;5148145;27;20045;-55
2023/07/19 01:02:27;;;;;;;1.77;0.68;;;17.20;99.90;;;;;;5148305;27;20367;-45
2023/07/19 01:04:53;;;;;;;1.27;0.88;;;17.10;99.90;;;;;;5150916;27;20506;-52
2023/07/19 01:07:18;;;;;;;2.15;0.80;;;17.10;99.90;;;;;;5135396;27;20030;-45
2023/07/19 01:09:44;;;;;;;1.77;0.82;;;17.10;99.90;;;;;;5131987;27;20064;-53
2023/07/19 01:12:10;;;;;;;3.50;0.70;;;17.10;99.90;;;;;;5143900;27;20038;-49
2023/07/19 01:14:35;;;;;;;0.85;0.60;;;17.10;99.90;;;;;;5152788;27;20436;-46
2023/07/19 01:17:01;;;;;;;1.55;0.60;;;17.10;99.90;;;;;;5153233;27;20031;-54
2023/07/19 01:19:27;;;;;;;4.07;0.73;;;17.10;99.90;;;;;;5152602;27;20454;-52
2023/07/19 01:21:55;;;;;;;2.53;1.00;;;17.10;99.90;;;;;;5152601;27;20051;-56
2023/07/19 01:24:20;;;;;;;3.80;0.70;;;17.10;99.90;;;;;;5152631;27;20022;-51
2023/07/19 01:26:47;;;;;;;1.20;0.60;;;17.00;99.90;;;;;;5152401;27;20015;-44
2023/07/19 01:29:12;;;;;;;2.17;0.80;;;17.00;99.90;;;;;;5152604;27;20029;-50
2023/07/19 01:31:38;;;;;;;0.98;0.68;;;17.00;99.90;;;;;;5152364;27;20027;-49
2023/07/19 01:34:04;;;;;;;2.08;0.70;;;16.90;99.90;;;;;;5152506;27;20023;-53
2023/07/19 01:36:29;;;;;;;1.88;0.93;;;16.90;99.90;;;;;;5152342;27;20101;-46
2023/07/19 01:38:55;;;;;;;2.90;0.65;;;16.90;99.90;;;;;;5152485;27;20018;-46
2023/07/19 01:41:21;;;;;;;2.72;0.70;;;16.80;99.90;;;;;;5152598;27;20574;-49
2023/07/19 01:43:47;;;;;;;2.83;0.70;;;16.80;99.90;;;;;;5151907;27;20023;-49
2023/07/19 01:46:12;;;;;;;2.25;0.80;;;16.70;99.90;;;;;;5152395;27;20029;-44
2023/07/19 01:48:38;;;;;;;1.98;0.88;;;16.70;99.90;;;;;;5152221;27;20019;-44
2023/07/19 01:51:05;;;;;;;2.05;0.60;;;16.60;99.90;;;;;;5151131;27;20047;-45
2023/07/19 01:53:31;;;;;;;3.85;0.70;;;16.60;99.90;;;;;;5152093;27;20030;-52
2023/07/19 01:55:56;;;;;;;2.22;0.90;;;16.50;99.90;;;;;;5152356;27;20091;-49
2023/07/19 01:58:22;;;;;;;4.05;0.80;;;16.50;99.90;;;;;;5152456;27;20479;-45
2023/07/19 02:00:48;;;;;;;1.23;0.75;;;16.50;99.90;;;;;;5152072;27;20034;-52
2023/07/19 02:03:13;;;;;;;3.10;0.80;;;16.50;99.90;;;;;;5152249;27;20031;-46
2023/07/19 02:05:40;;;;;;;4.80;0.98;;;16.50;99.90;;;;;;5150674;27;20114;-47
2023/07/19 02:08:05;;;;;;;5.18;1.10;;;16.50;99.90;;;;;;5152085;27;20029;-51
2023/07/19 02:10:31;;;;;;;3.65;0.93;;;16.40;99.90;;;;;;5139904;27;20023;-48
2023/07/19 02:12:57;;;;;;;2.28;0.95;;;16.50;99.90;;;;;;5149850;27;20015;-45
2023/07/19 02:15:23;;;;;;;3.13;1.20;;;16.60;99.90;;;;;;5152211;27;20628;-46
2023/07/19 02:17:48;;;;;;;2.25;1.00;;;16.60;99.90;;;;;;5150649;27;20027;-43
2023/07/19 02:20:19;;;;;;;4.88;0.90;;;16.50;99.90;;;;;;5152066;27;20027;-50
2023/07/19 02:22:45;;;;;;;3.03;1.02;;;16.50;99.90;;;;;;5152261;27;20030;-48
2023/07/19 02:25:11;;;;;;;5.05;1.08;;;16.50;99.90;;;;;;5152143;27;20015;-45
2023/07/19 02:27:37;;;;;;;2.47;1.15;;;16.50;99.90;;;;;;5150875;27;20030;-47
2023/07/19 02:30:03;;;;;;;0.98;0.68;;;16.40;99.90;;;;;;5151917;27;20024;-43
2023/07/19 02:32:29;;;;;;;1.60;0.80;;;16.40;99.90;;;;;;5152034;27;20038;-55
2023/07/19 02:34:54;;;;;;;4.10;0.80;;;16.30;99.90;;;;;;5151608;27;20023;-47
2023/07/19 02:37:20;;;;;;;3.72;1.20;;;16.30;99.90;;;;;;5151901;27;20051;-55
2023/07/19 02:39:46;;;;;;;4.03;0.90;;;16.30;99.90;;;;;;5151771;27;20390;-46
2023/07/19 02:42:12;;;;;;;0.98;0.70;;;16.20;99.90;;;;;;5151919;27;20015;-52
2023/07/19 02:44:37;;;;;;;1.95;0.65;;;16.20;99.90;;;;;;5151869;27;20423;-46
2023/07/19 02:47:03;;;;;;;5.72;1.30;;;16.20;99.90;;;;;;5142827;27;20019;-53
2023/07/19 02:49:28;;;;;;;1.48;0.85;;;16.20;99.90;;;;;;5128644;27;20114;-46
2023/07/19 02:51:54;;;;;;;2.22;0.82;;;16.20;99.90;;;;;;5130701;27;20026;-43
2023/07/19 02:54:20;;;;;;;2.92;1.00;;;16.30;99.90;;;;;;5131472;27;20023;-48
2023/07/19 02:56:45;;;;;;;3.22;1.10;;;16.30;99.90;;;;;;5134678;27;20053;-50
2023/07/19 02:59:11;;;;;;;2.15;0.77;;;16.30;99.90;;;;;;5134729;27;20027;-53
2023/07/19 03:01:37;;;;;;;2.20;1.02;;;16.30;99.90;;;;;;5134775;27;20463;-50
2023/07/19 03:04:03;;;;;;;2.97;0.88;;;16.40;99.90;;;;;;5134512;27;20023;-50
2023/07/19 03:06:28;;;;;;;3.65;0.93;;;16.40;99.90;;;;;;5134477;27;20037;-57
2023/07/19 03:08:54;;;;;;;1.10;0.90;;;16.40;99.90;;;;;;5134647;27;20076;-46
2023/07/19 03:11:20;;;;;;;2.72;1.00;;;16.40;99.90;;;;;;5134497;27;20106;-50
2023/07/19 03:13:45;;;;;;;2.95;1.30;;;16.40;99.90;;;;;;5134618;27;20031;-46
2023/07/19 03:16:11;;;;;;;2.05;0.88;;;16.40;99.90;;;;;;5134434;27;20099;-54
2023/07/19 03:18:37;;;;;;;1.80;1.13;;;16.40;99.90;;;;;;5134252;27;20309;-52
2023/07/19 03:21:02;;;;;;;5.20;1.10;;;16.50;99.90;;;;;;5134025;27;20031;-51
2023/07/19 03:23:32;;;;;;;2.97;0.98;;;16.50;99.90;;;;;;5134540;27;20030;-55
2023/07/19 03:26:00;;;;;;;2.28;1.10;;;16.50;99.90;;;;;;5134194;27;20018;-50
2023/07/19 03:28:28;;;;;;;2.78;1.30;;;16.50;99.90;;;;;;5133066;27;20392;-46
2023/07/19 03:30:54;;;;;;;2.15;1.10;;;16.50;99.90;;;;;;5134219;27;20030;-46
2023/07/19 03:33:24;;;;;;;2.08;1.10;;;16.50;99.90;;;;;;5133954;27;20110;-52
2023/07/19 03:35:50;;;;;;;1.83;0.82;;;16.50;99.90;;;;;;5134266;27;20023;-49
2023/07/19 03:38:17;;;;;;;3.25;1.17;;;16.50;99.90;;;;;;5133928;27;20514;-44
2023/07/19 03:40:43;;;;;;;6.25;1.17;;;16.50;99.90;;;;;;5133920;27;20124;-49
2023/07/19 03:43:09;;;;;;;2.22;1.02;;;16.50;99.90;;;;;;5133642;27;20040;-44
2023/07/19 03:45:34;;;;;;;1.60;0.98;;;16.50;99.90;;;;;;5133897;27;20057;-44
2023/07/19 03:48:00;;;;;;;2.13;1.10;;;16.50;99.90;;;;;;5133842;27;20051;-45
2023/07/19 03:50:26;;;;;;;1.90;1.02;;;16.50;99.90;;;;;;5133946;27;20102;-45
2023/07/19 03:52:51;;;;;;;2.63;0.98;;;16.60;99.90;;;;;;5133985;27;20023;-45
2023/07/19 03:55:17;;;;;;;2.88;1.30;;;16.60;99.90;;;;;;5133308;27;20108;-51
2023/07/19 03:57:43;;;;;;;1.70;0.90;;;16.60;99.90;;;;;;5133710;27;20039;-46
2023/07/19 04:00:09;;;;;;;2.17;1.20;;;16.60;99.90;;;;;;5133564;27;20492;-43
2023/07/19 04:02:35;;;;;;;3.47;1.55;;;16.60;99.90;;;;;;5133578;27;20024;-45
2023/07/19 04:05:00;;;;;;;4.45;1.20;;;16.60;99.90;;;;;;5133283;27;20383;-47
2023/07/19 04:07:26;;;;;;;2.22;1.30;;;16.60;99.90;;;;;;5133325;27;20020;-43
2023/07/19 04:09:52;;;;;;;3.55;1.27;;;16.60;99.90;;;;;;5133645;27;20027;-42
2023/07/19 04:12:18;;;;;;;2.75;1.40;;;16.60;99.90;;;;;;5133493;27;20353;-42
2023/07/19 04:14:43;;;;;;;1.55;0.93;;;16.60;99.90;;;;;;5133426;27;20110;-47
2023/07/19 04:17:10;;;;;;;5.57;1.30;;;16.60;99.90;;;;;;5133289;27;20019;-52
2023/07/19 04:19:36;;;;;;;2.80;1.55;;;16.70;99.90;;;;;;5133148;27;20031;-50
2023/07/19 04:22:01;;;;;;;3.50;1.40;;;16.70;99.90;;;;;;5133063;27;20026;-45
2023/07/19 04:24:27;;;;;;;2.53;1.40;;;16.70;99.90;;;;;;5133106;27;20047;-43
2023/07/19 04:26:53;;;;;;;1.13;0.85;;;16.70;99.90;;;;;;5133066;27;20058;-47
2023/07/19 04:29:19;;;;;;;4.47;1.48;;;16.70;99.90;;;;;;5133414;27;20028;-52
2023/07/19 04:31:45;;;;;;;2.47;1.10;;;16.70;99.90;;;;;;5114682;27;20049;-48
2023/07/19 04:34:11;;;;;;;5.55;1.52;;;16.70;99.90;;;;;;5133038;27;20562;-51
2023/07/19 04:36:36;;;;;;;2.67;1.23;;;16.70;99.90;;;;;;5132709;27;20513;-56
2023/07/19 04:39:02;;;;;;;4.55;1.67;;;16.70;99.90;;;;;;5132530;27;20110;-49
2023/07/19 04:41:28;;;;;;;5.25;1.80;;;16.70;99.90;;;;;;5132500;27;20035;-60
2023/07/19 04:43:53;;;;;;;2.13;1.30;;;16.70;99.90;;;;;;5132520;27;20030;-46
2023/07/19 04:46:21;;;;;;;6.72;1.42;;;16.70;99.90;;;;;;5132386;27;20399;-45
2023/07/19 04:48:47;;;;;;;4.10;1.95;;;16.80;99.90;;;;;;5131360;27;20026;-54
2023/07/19 04:51:12;;;;;;;1.52;1.02;;;16.80;99.90;;;;;;5132466;27;20236;-52
2023/07/19 04:53:38;;;;;;;3.17;1.40;;;16.80;99.90;;;;;;5132575;27;20495;-53
2023/07/19 04:56:04;;;;;;;3.88;1.40;;;16.80;99.90;;;;;;5132304;27;20047;-53
2023/07/19 04:58:29;;;;;;;6.80;1.42;;;16.80;99.90;;;;;;5132285;27;20112;-43
2023/07/19 05:00:55;;;;;;;4.90;1.52;;;16.80;99.90;;;;;;5132459;27;20228;-50
2023/07/19 05:03:22;;;;;;;4.05;1.40;;;16.80;99.90;;;;;;5132422;27;20027;-49
2023/07/19 05:05:48;;;;;;;3.03;1.50;;;16.80;99.90;;;;;;5132351;27;20467;-46
2023/07/19 05:08:13;;;;;;;3.28;1.55;;;16.90;99.90;;;;;;5132415;27;20080;-48
2023/07/19 05:10:40;;;;;;;3.95;1.70;;;16.90;99.90;;;;;;5132141;27;20032;-45
2023/07/19 05:13:06;;;;;;;4.55;1.40;;;16.80;99.90;;;;;;5132193;27;20032;-47
2023/07/19 05:15:32;;;;;;;3.38;1.38;;;16.90;99.90;;;;;;5131769;27;20588;-49
2023/07/19 05:17:59;;;;;;;2.47;1.38;;;16.90;99.90;;;;;;5131226;27;20015;-46
2023/07/19 05:20:26;;;;;;;5.85;1.67;;;16.90;99.90;;;;;;5131960;27;20073;-51
2023/07/19 05:22:51;;;;;;;3.42;1.48;;;16.90;99.90;;;;;;5132059;27;20015;-47
2023/07/19 05:25:17;;;;;;;6.32;1.67;;;16.90;99.90;;;;;;5131593;27;20034;-53
2023/07/19 05:27:43;;;;;;;3.00;1.67;;;17.00;99.90;;;;;;5131806;27;20485;-49
2023/07/19 05:30:09;;;;;;;5.40;1.60;;;17.00;99.90;;;;;;5131874;27;20015;-45
2023/07/19 05:32:35;;;;;;;4.65;1.60;;;17.00;99.90;;;;;;5131735;27;20471;-43
2023/07/19 05:35:01;;;;;;;4.63;1.60;;;17.00;99.90;;;;;;5131896;27;20038;-56
2023/07/19 05:37:27;;;;;;;4.30;1.42;;;17.00;99.90;;;;;;5131983;27;20030;-48
2023/07/19 05:39:53;;;;;;;4.35;1.42;;;17.00;99.90;;;;;;5131465;27;20021;-43
2023/07/19 05:42:18;;;;;;;2.63;1.42;;;16.80;99.90;;;;;;5131698;27;20034;-42
2023/07/19 05:44:44;;;;;;;2.92;1.25;;;17.10;99.90;;;;;;5131514;27;20094;-43
2023/07/19 05:47:10;;;;;;;4.45;1.30;;;17.20;99.90;;;;;;5131649;27;20012;-43
2023/07/19 05:49:35;;;;;;;3.15;1.50;;;17.20;99.90;;;;;;5131620;27;20035;-43
2023/07/19 05:52:01;;;;;;;6.65;1.88;;;17.20;99.90;;;;;;5138020;27;20501;-43
2023/07/19 05:54:27;;;;;;;4.70;1.83;;;17.30;99.90;;;;;;5131455;27;20110;-47
2023/07/19 05:56:52;;;;;;;3.13;1.50;;;16.60;99.90;;;;;;5131266;27;20035;-49
2023/07/19 05:59:18;;;;;;;2.58;1.17;;;17.30;99.90;;;;;;5131424;27;20102;-45
2023/07/19 06:01:44;;;;;;;4.95;1.73;;;17.40;99.90;;;;;;5130361;27;20243;-46
2023/07/19 06:04:10;;;;;;;1.98;1.27;;;17.40;99.90;;;;;;5131386;27;20042;-50
2023/07/19 06:06:35;;;;;;;3.95;1.48;;;17.50;99.90;;;;;;5131197;27;20023;-44
2023/07/19 06:09:05;;;;;;;3.17;1.25;;;17.60;99.90;;;;;;5131291;27;20400;-44
2023/07/19 06:11:32;;;;;;;4.13;1.50;;;17.60;99.90;;;;;;5131282;27;20031;-45
2023/07/19 06:13:58;;;;;;;3.65;1.30;;;17.70;99.90;;;;;;5131117;27;20031;-44
2023/07/19 06:16:25;;;;;;;4.05;1.08;;;17.80;99.90;;;;;;5131575;27;20030;-42
2023/07/19 06:18:51;;;;;;;6.30;1.85;;;17.90;99.90;;;;;;5131578;27;20026;-45
2023/07/19 06:21:17;;;;;;;5.32;1.50;;;18.00;99.90;;;;;;5131178;27;20035;-49
2023/07/19 06:23:43;;;;;;;5.07;1.60;;;18.00;99.90;;;;;;5131367;27;20039;-49
2023/07/19 06:26:08;;;;;;;6.45;1.23;;;18.00;99.90;;;;;;5144893;27;20019;-46
2023/07/19 06:28:35;;;;;;;5.15;1.30;;;18.10;99.90;;;;;;5132349;27;20026;-49
2023/07/19 06:31:01;;;;;;;4.38;1.63;;;18.20;99.90;;;;;;5133664;27;20357;-52
2023/07/19 06:33:31;;;;;;;7.47;1.63;;;18.30;99.90;;;;;;5135306;27;20032;-44
2023/07/19 06:35:57;;;;;;;3.25;1.48;;;18.40;99.90;;;;;;5135008;27;20023;-43
2023/07/19 06:38:24;;;;;;;4.22;1.40;;;18.40;99.90;;;;;;5135296;27;20031;-44
2023/07/19 06:40:50;;;;;;;3.33;1.40;;;18.50;99.90;;;;;;5141380;27;20479;-43
2023/07/19 06:43:15;;;;;;;5.00;1.20;;;18.60;99.90;;;;;;5136189;27;20068;-45
2023/07/19 06:45:41;;;;;;;4.10;1.40;;;18.70;99.90;;;;;;5139991;27;20101;-44
2023/07/19 06:48:06;;;;;;;5.78;1.60;;;18.80;99.90;;;;;;5136995;27;20027;-47
2023/07/19 06:50:32;;;;;;;4.15;1.30;;;19.00;99.90;;;;;;5134820;27;20019;-50
2023/07/19 06:52:59;;;;;;;1.92;1.13;;;19.10;99.90;;;;;;5134576;27;20023;-53
2023/07/19 06:55:25;;;;;;;4.05;1.30;;;19.90;99.90;;;;;;5134511;27;20062;-49
2023/07/19 06:57:51;;;;;;;3.47;1.48;;;19.90;99.90;;;;;;5139921;27;20065;-47
2023/07/19 07:00:17;;;;;;;4.82;1.52;;;20.70;99.90;;;;;;5139824;27;20468;-49
2023/07/19 07:02:43;;;;;;;3.65;1.20;;;21.00;99.90;;;;;;5134782;27;20015;-47
2023/07/19 07:05:10;;;;;;;4.07;1.55;;;20.80;99.90;;;;;;5128289;27;20384;-37
2023/07/19 07:07:37;;;;;;;5.50;1.58;;;20.70;99.90;;;;;;5123313;27;20429;-45
2023/07/19 07:10:05;;;;;;;3.92;1.27;;;20.50;99.90;;;;;;5133542;27;20015;-42
2023/07/19 07:12:31;;;;;;;2.42;1.27;;;20.70;99.90;;;;;;5132300;27;20024;-43
2023/07/19 07:14:57;;;;;;;2.70;1.23;;;20.40;99.90;;;;;;5134509;27;20547;-54
2023/07/19 07:17:22;;;;;;;2.58;1.20;;;19.70;99.90;;;;;;5137730;27;20093;-47
2023/07/19 07:19:48;;;;;;;3.05;1.30;;;20.80;99.90;;;;;;5140710;27;20172;-49
2023/07/19 07:22:13;;;;;;;1.90;0.88;;;20.30;99.90;;;;;;5134170;27;20023;-42
2023/07/19 07:24:40;;;;;;;4.70;1.65;;;19.90;99.90;;;;;;5142849;27;20027;-50
2023/07/19 07:27:06;;;;;;;2.60;1.20;;;20.20;99.90;;;;;;5139149;27;20509;-48
2023/07/19 07:29:32;;;;;;;3.88;1.33;;;20.20;99.90;;;;;;5133871;27;20027;-44
2023/07/19 07:31:57;;;;;;;2.58;1.17;;;20.10;99.90;;;;;;5134033;27;20033;-45
2023/07/19 07:34:24;;;;;;;2.47;1.20;;;20.10;99.90;;;;;;5134119;27;20019;-44
2023/07/19 07:36:50;;;;;;;1.85;1.02;;;20.00;99.90;;;;;;5132772;27;20027;-46
2023/07/19 07:39:15;;;;;;;2.47;1.17;;;20.00;99.90;;;;;;5133755;27;20041;-47
2023/07/19 07:41:41;;;;;;;3.70;1.10;;;20.10;99.90;;;;;;5145822;27;20091;-45
2023/07/19 07:44:06;;;;;;;3.92;1.38;;;20.20;99.90;;;;;;5142890;27;20026;-47
2023/07/19 07:46:32;;;;;;;1.83;0.98;;;20.80;99.90;;;;;;5133256;27;20042;-48
2023/07/19 07:48:59;;;;;;;3.13;1.17;;;22.00;99.90;;;;;;5133760;27;20106;-48
2023/07/19 07:51:29;;;;;;;1.27;0.93;;;20.70;99.90;;;;;;5133900;27;20455;-48
2023/07/19 07:53:54;;;;;;;3.35;1.20;;;20.20;99.90;;;;;;5133442;27;20498;-48
2023/07/19 07:56:22;;;;;;;2.42;1.05;;;21.40;99.90;;;;;;5133325;27;20122;-53
2023/07/19 07:58:47;;;;;;;3.25;1.20;;;20.50;99.90;;;;;;5143647;27;20122;-47
2023/07/19 08:01:13;;;;;;;2.28;0.98;;;20.70;99.90;;;;;;5131985;27;20098;-44
2023/07/19 08:03:39;;;;;;;2.60;1.17;;;20.40;99.90;;;;;;5130909;27;20019;-43
2023/07/19 08:06:04;;;;;;;3.42;1.25;;;20.50;99.90;;;;;;5135013;27;20053;-55
2023/07/19 08:08:30;;;;;;;2.63;1.23;;;20.60;99.90;;;;;;5135426;27;20015;-44
2023/07/19 08:10:56;;;;;;;3.10;1.17;;;22.00;99.90;;;;;;5133400;27;20035;-48
2023/07/19 08:13:22;;;;;;;2.42;1.13;;;21.10;99.90;;;;;;5133363;27;20026;-43
2023/07/19 08:15:48;;;;;;;1.73;1.00;;;21.50;99.90;;;;;;5133419;27;20023;-45
2023/07/19 08:18:14;;;;;;;5.60;1.15;;;21.50;99.90;;;;;;5133005;27;20034;-48
2023/07/19 08:20:40;;;;;;;6.90;1.15;;;23.00;99.90;;;;;;5133120;27;20031;-47
2023/07/19 08:23:06;;;;;;;2.47;1.13;;;21.50;99.90;;;;;;5133024;27;20111;-51
2023/07/19 08:25:34;;;;;;;3.83;1.15;;;21.60;99.90;;;;;;5132952;27;20068;-49
2023/07/19 08:28:00;;;;;;;7.20;1.33;;;21.50;99.90;;;;;;5133076;27;20023;-38
2023/07/19 08:30:26;;;;;;;1.98;1.00;;;21.50;99.90;;;;;;5132029;27;20427;-55
2023/07/19 08:32:51;;;;;;;3.53;1.30;;;21.60;99.90;;;;;;5128765;27;20023;-54
2023/07/19 08:35:17;;;;;;;1.88;0.90;;;22.00;99.90;;;;;;5131883;27;20031;-52
2023/07/19 08:37:44;;;;;;;3.50;1.15;;;22.00;99.90;;;;;;5133460;27;20023;-52
2023/07/19 08:40:14;;;;;;;2.67;1.33;;;22.10;99.90;;;;;;5134320;27;20042;-48
2023/07/19 08:42:42;;;;;;;2.45;1.00;;;21.90;99.90;;;;;;5136986;27;20023;-49
2023/07/19 08:45:09;;;;;;;3.83;0.93;;;21.70;99.90;;;;;;5142325;27;20102;-49
2023/07/19 08:47:37;;;;;;;2.05;1.00;;;21.80;99.90;;;;;;5134833;27;20030;-53
2023/07/19 08:50:07;;;;;;;3.42;0.88;;;21.90;99.90;;;;;;5137856;27;20643;-49
2023/07/19 08:52:33;;;;;;;1.55;0.80;;;22.10;99.90;;;;;;5132183;27;20769;-47
2023/07/19 08:55:00;;;;;;;3.20;1.10;;;22.30;99.90;;;;;;5143503;27;20044;-44
2023/07/19 08:57:27;;;;;;;1.88;1.00;;;22.20;99.90;;;;;;5135054;27;20581;-46
2023/07/19 08:59:52;;;;;;;2.28;1.13;;;22.30;99.90;;;;;;5140951;27;20035;-51
2023/07/19 09:02:18;;;;;;;1.42;0.90;;;23.40;99.90;;;;;;5129692;27;20579;-46
2023/07/19 09:05:10;;;;;;;1.73;1.00;;;23.80;99.90;;;;;;5132150;27;20071;-51
2023/07/19 09:07:39;;;;;;;3.42;1.02;;;25.50;99.90;;;;;;5132107;27;20038;-45
2023/07/19 09:10:06;;;;;;;1.73;0.88;;;24.70;99.90;;;;;;5132197;27;20031;-54
2023/07/19 09:12:40;;;;;;;3.53;1.23;;;23.70;99.90;;;;;;5131926;27;20042;-51
2023/07/19 09:15:08;;;;;;;1.17;0.70;;;25.40;99.90;;;;;;5131894;27;20426;-46
2023/07/19 09:17:37;;;;;;;2.35;0.90;;;25.70;99.90;;;;;;5132076;27;20114;-51
2023/07/19 09:20:04;;;;;;;1.67;0.90;;;24.90;99.90;;;;;;5132015;27;20030;-55
2023/07/19 09:22:30;;;;;;;2.05;0.82;;;24.80;99.90;;;;;;5130746;27;20027;-50
2023/07/19 09:25:01;;;;;;;1.75;0.95;;;24.20;99.90;;;;;;5131936;27;20019;-51
2023/07/19 09:27:27;;;;;;;1.83;0.80;;;;;;;;;;5131816;27;20045;-46
2023/07/19 09:29:53;;;;;;;3.20;0.77;;;22.90;99.90;;;;;;5131859;27;20019;-46
2023/07/19 09:32:19;;;;;;;2.67;0.93;;;21.60;99.90;;;;;;5131983;27;20050;-48
2023/07/19 09:34:44;;;;;;;2.88;0.90;;;21.90;99.90;;;;;;5131818;27;20012;-43
2023/07/19 09:37:10;;;;;;;2.00;1.05;;;22.00;99.90;;;;;;5131875;27;20019;-49
2023/07/19 09:39:37;;;;;;;2.58;0.90;;;22.30;99.90;;;;;;5131719;27;20108;-50
2023/07/19 09:42:03;;;;;;;2.13;0.98;;;21.70;99.90;;;;;;5137374;27;20478;-48
2023/07/19 09:44:30;;;;;;;1.23;0.82;;;22.50;99.90;;;;;;5138739;27;20034;-46
2023/07/19 09:46:56;;;;;;;1.92;1.00;;;22.00;99.90;;;;;;5131599;27;20024;-51
2023/07/19 09:49:23;;;;;;;1.83;0.90;;;22.80;99.90;;;;;;5131797;27;20430;-43
2023/07/19 09:51:50;;;;;;;2.22;1.08;;;22.60;99.90;;;;;;5130848;27;20015;-52
2023/07/19 09:54:16;;;;;;;4.45;1.27;;;23.00;99.90;;;;;;5132156;27;20027;-52
2023/07/19 09:56:43;;;;;;;1.83;0.93;;;23.30;99.90;;;;;;5131210;27;20130;-45
2023/07/19 09:59:13;;;;;;;3.20;1.60;;;23.50;99.90;;;;;;5127675;27;20032;-48
2023/07/19 10:01:39;;;;;;;2.80;1.00;;;23.60;99.90;;;;;;5140424;27;20030;-40
2023/07/19 10:04:28;;;;;;;1.42;0.95;;;23.80;99.90;;;;;;5140387;27;20028;-42
2023/07/19 10:07:14;;;;;;;4.45;1.10;;;24.10;99.90;;;;;;5132089;27;20062;-43
2023/07/19 10:09:44;;;;;;;1.98;0.80;;;24.10;99.90;;;;;;5135245;27;20110;-45
2023/07/19 10:12:16;;;;;;;2.20;0.90;;;23.90;99.90;;;;;;5136305;27;20471;-46
2023/07/19 10:14:55;;;;;;;2.70;1.23;;;23.40;99.90;;;;;;5137338;27;20087;-44
2023/07/19 10:17:22;;;;;;;;;;;22.80;99.90;;;;;;5136518;27;20027;-40
2023/07/19 10:20:02;;;;;;;2.13;1.20;;;23.90;99.90;;;;;;5140802;27;19969;-43
2023/07/19 10:22:50;;;;;;;2.75;1.10;;;18.80;99.90;;;;;;5135726;27;20463;-46
2023/07/19 10:25:24;;;;;;;1.65;0.85;;;19.00;99.90;;;;;;5142568;27;20019;-42
2023/07/19 10:28:05;;;;;;;2.15;0.82;;;21.50;99.90;;;;;;5141189;27;20479;-40
2023/07/19 10:30:46;;;;;;;1.60;0.93;;;22.40;99.90;;;;;;5145187;27;20046;-47
2023/07/19 10:33:16;;;;;;;1.50;0.80;;;22.80;99.90;;;;;;5128711;27;20057;-43
2023/07/19 10:35:42;;;;;;;3.78;1.10;;;18.30;99.90;;;;;;5130114;27;20480;-43
2023/07/19 10:38:30;;;;;;;1.90;1.02;;;20.40;99.90;;;;;;5135480;27;20085;-47
2023/07/19 10:41:05;;;;;;;2.97;0.82;;;22.40;99.90;;;;;;5130044;27;20031;-49
2023/07/19 10:43:32;;;;;;;0.82;0.60;;;24.50;99.90;;;;;;5132099;27;20023;-50
2023/07/19 10:45:59;;;;;;;1.42;0.75;;;24.30;99.90;;;;;;5138756;27;20093;-48
2023/07/19 10:48:27;;;;;;;1.77;1.23;;;26.20;99.90;;;;;;5134288;27;20023;-43
2023/07/19 10:50:56;;;;;;;2.85;0.90;;;25.50;99.90;;;;;;5149728;27;20030;-48
2023/07/19 10:53:23;;;;;;;0.73;0.50;;;26.80;99.90;;;;;;5132019;27;20031;-55
2023/07/19 10:55:55;;;;;;;1.10;0.77;;;28.00;99.90;;;;;;5130397;27;20035;-47
2023/07/19 10:58:21;;;;;;;1.98;0.50;;;28.10;99.90;;;;;;5130787;27;20034;-48
2023/07/19 11:00:48;;;;;;;0.75;0.63;;;29.20;97.70;;;;;;5148692;27;20095;-46
2023/07/19 11:03:14;;;;;;;1.25;0.70;;;27.50;98.40;;;;;;5133150;27;20027;-44
2023/07/19 11:05:51;;;;;;;1.30;0.63;;;25.70;98.90;;;;;;5126617;27;20027;-49
2023/07/19 11:08:24;;;;;;;1.27;0.70;;;25.00;99.90;;;;;;5125642;27;20077;-45
2023/07/19 11:10:51;;;;;;;1.30;0.60;;;26.40;99.90;;;;;;5128013;27;20019;-51
2023/07/19 11:13:18;;;;;;;1.30;0.70;;;26.80;99.90;;;;;;5130229;27;20026;-51
2023/07/19 11:15:48;;;;;;;1.42;0.80;;;28.70;99.90;;;;;;5131500;27;20037;-46
2023/07/19 11:18:29;;;;;;;1.70;0.95;;;27.40;99.70;;;;;;5134671;27;20037;-49
2023/07/19 11:20:58;;;;;;;1.10;0.60;;;27.80;99.70;;;;;;5139435;27;20046;-55
2023/07/19 11:23:28;;;;;;;1.23;0.70;;;29.10;98.30;;;;;;5134130;27;20460;-51
2023/07/19 11:26:08;;;;;;;1.02;0.73;;;28.70;97.90;;;;;;5133960;27;20027;-50
2023/07/19 11:28:58;;;;;;;1.77;0.70;;;28.90;97.90;;;;;;5134140;27;20019;-55
2023/07/19 11:31:33;;;;;;;1.95;0.60;;;28.60;95.80;;;;;;5125515;27;20043;-50
2023/07/19 11:34:06;;;;;;;1.35;0.70;;;28.30;96.00;;;;;;5138216;27;20039;-46
2023/07/19 11:36:33;;;;;;;1.38;0.73;;;26.20;94.90;;;;;;5133665;27;20031;-50
2023/07/19 11:38:59;;;;;;;2.08;0.75;;;28.20;96.10;;;;;;5133771;27;20011;-46
2023/07/19 11:41:24;;;;;;;1.05;0.70;;;28.00;96.70;;;;;;5128862;27;20039;-49
2023/07/19 11:43:53;;;;;;;3.22;0.90;;;28.40;95.80;;;;;;5133270;27;20025;-45
2023/07/19 11:46:19;;;;;;;0.93;0.70;;;28.60;95.00;;;;;;5136658;27;20015;-46
2023/07/19 11:48:47;;;;;;;1.08;0.70;;;28.60;94.50;;;;;;5133581;27;20240;-48
2023/07/19 11:51:14;;;;;;;1.73;0.90;;;28.40;94.10;;;;;;5132960;27;20023;-51
2023/07/19 11:53:40;;;;;;;2.30;0.95;;;28.30;95.00;;;;;;5143045;27;20071;-49
2023/07/19 11:56:06;;;;;;;4.20;1.00;;;28.10;94.60;;;;;;5133226;27;20073;-46
2023/07/19 11:58:33;;;;;;;2.10;1.00;;;27.60;95.00;;;;;;5132987;27;20432;-46
2023/07/19 12:01:00;;;;;;;4.55;1.30;;;26.90;94.80;;;;;;5133010;27;20027;-43
2023/07/19 12:03:26;;;;;;;2.05;0.80;;;26.60;98.70;;;;;;5120217;27;20028;-55
2023/07/19 12:05:52;;;;;;;2.05;1.15;;;25.50;97.80;;;;;;5131834;27;20027;-53
2023/07/19 12:08:17;;;;;;;2.10;1.30;;;25.00;99.30;;;;;;5147385;27;20023;-49
2023/07/19 12:10:43;;;;;;;3.65;1.05;;;24.40;99.90;;;;;;5122223;27;20096;-51
2023/07/19 12:13:09;;;;;;;3.83;1.20;;;24.00;99.50;;;;;;5133265;27;20015;-48
2023/07/19 12:15:35;;;;;;;2.35;1.30;;;23.90;99.90;;;;;;5132777;27;20476;-47
2023/07/19 12:18:00;;;;;;;2.53;1.38;;;25.60;99.90;;;;;;5132859;27;20110;-51
2023/07/19 12:20:27;;;;;;;4.55;1.10;;;26.30;99.90;;;;;;5132857;27;20043;-42
2023/07/19 12:22:53;;;;;;;3.85;1.30;;;25.80;99.90;;;;;;5131851;27;20113;-49
2023/07/19 12:25:18;;;;;;;2.90;1.30;;;26.90;99.70;;;;;;5133387;27;20157;-50
2023/07/19 12:27:44;;;;;;;2.95;1.20;;;26.90;98.30;;;;;;5132622;27;20023;-45
2023/07/19 12:30:11;;;;;;;2.47;1.17;;;26.30;99.40;;;;;;5133108;27;20019;-45
2023/07/19 12:32:38;;;;;;;1.23;0.82;;;24.80;99.90;;;;;;5137675;27;20018;-45
2023/07/19 12:35:05;;;;;;;3.95;1.23;;;25.80;99.90;;;;;;5132980;27;20023;-49
2023/07/19 12:37:33;;;;;;;2.63;1.33;;;25.30;99.90;;;;;;5133115;27;20084;-48
2023/07/19 12:39:58;;;;;;;4.40;1.13;;;25.70;99.90;;;;;;5132802;27;20031;-50
2023/07/19 12:42:26;;;;;;;2.85;1.10;;;24.80;99.90;;;;;;5132666;27;20029;-55
2023/07/19 12:44:51;;;;;;;4.25;1.13;;;27.00;99.90;;;;;;5132724;27;20019;-45
2023/07/19 12:47:18;;;;;;;3.70;0.88;;;25.30;99.90;;;;;;5132565;27;20030;-48